sensor_id;sensor_type;location;lat;lon;timestamp;P1;durP1;ratioP1;P2;durP2;ratioP2
34924;SDS011;21130;51.728;8.748;2022-08-21T00:02:19;16.10;;;14.40;;
34924;SDS011;21130;51.728;8.748;2022-08-21T00:04:47;16.67;;;14.70;;
34924;SDS011;21130;51.728;8.748;2022-08-21T00:07:13;17.67;;;14.40;;
34924;SDS011;21130;51.728;8.748;2022-08-21T00:09:39;10.68;;;9.60;;
34924;SDS011;21130;51.728;8.748;2022-08-21T00:12:05;17.45;;;15.65;;
34924;SDS011;21130;51.728;8.748;2022-08-21T00:14:31;18.20;;;16.50;;
34924;SDS011;21130;51.728;8.748;2022-08-21T00:16:57;20.08;;;16.95;;
34924;SDS011;21130;51.728;8.748;2022-08-21T00:19:23;20.05;;;17.27;;
34924;SDS011;21130;51.728;8.748;2022-08-21T00:21:50;22.17;;;18.35;;
34924;SDS011;21130;51.728;8.748;2022-08-21T00:24:17;18.77;;;16.75;;
34924;SDS011;21130;51.728;8.748;2022-08-21T00:26:43;18.77;;;16.83;;
34924;SDS011;21130;51.728;8.748;2022-08-21T00:29:09;18.35;;;16.52;;
34924;SDS011;21130;51.728;8.748;2022-08-21T00:31:35;17.77;;;16.00;;
34924;SDS011;21130;51.728;8.748;2022-08-21T00:34:00;15.68;;;14.07;;
34924;SDS011;21130;51.728;8.748;2022-08-21T00:36:26;16.50;;;15.00;;
34924;SDS011;21130;51.728;8.748;2022-08-21T00:38:52;18.05;;;15.65;;
34924;SDS011;21130;51.728;8.748;2022-08-21T00:41:17;17.48;;;15.82;;
34924;SDS011;21130;51.728;8.748;2022-08-21T00:43:43;17.40;;;15.70;;
34924;SDS011;21130;51.728;8.748;2022-08-21T00:46:08;16.10;;;14.35;;
34924;SDS011;21130;51.728;8.748;2022-08-21T00:48:34;16.88;;;15.27;;
34924;SDS011;21130;51.728;8.748;2022-08-21T00:51:13;17.52;;;15.20;;
34924;SDS011;21130;51.728;8.748;2022-08-21T00:53:47;16.92;;;15.32;;
34924;SDS011;21130;51.728;8.748;2022-08-21T00:56:16;16.10;;;14.60;;
34924;SDS011;21130;51.728;8.748;2022-08-21T00:58:42;16.70;;;15.05;;
34924;SDS011;21130;51.728;8.748;2022-08-21T01:01:08;17.17;;;15.10;;
34924;SDS011;21130;51.728;8.748;2022-08-21T01:03:34;17.50;;;15.75;;
34924;SDS011;21130;51.728;8.748;2022-08-21T01:06:01;21.60;;;19.20;;
34924;SDS011;21130;51.728;8.748;2022-08-21T01:08:29;21.75;;;19.50;;
34924;SDS011;21130;51.728;8.748;2022-08-21T01:10:55;19.88;;;18.05;;
34924;SDS011;21130;51.728;8.748;2022-08-21T01:13:22;19.92;;;17.83;;
34924;SDS011;21130;51.728;8.748;2022-08-21T01:15:49;22.33;;;18.45;;
34924;SDS011;21130;51.728;8.748;2022-08-21T01:18:19;20.05;;;17.65;;
34924;SDS011;21130;51.728;8.748;2022-08-21T01:23:33;19.00;;;17.10;;
34924;SDS011;21130;51.728;8.748;2022-08-21T01:26:00;25.10;;;18.50;;
34924;SDS011;21130;51.728;8.748;2022-08-21T01:28:27;21.40;;;17.85;;
34924;SDS011;21130;51.728;8.748;2022-08-21T01:30:55;20.17;;;18.08;;
34924;SDS011;21130;51.728;8.748;2022-08-21T01:33:21;25.80;;;21.23;;
34924;SDS011;21130;51.728;8.748;2022-08-21T01:35:49;22.25;;;20.05;;
34924;SDS011;21130;51.728;8.748;2022-08-21T01:38:14;20.98;;;18.88;;
34924;SDS011;21130;51.728;8.748;2022-08-21T01:40:40;20.75;;;18.55;;
34924;SDS011;21130;51.728;8.748;2022-08-21T01:43:05;21.25;;;18.77;;
34924;SDS011;21130;51.728;8.748;2022-08-21T01:45:31;18.73;;;16.70;;
34924;SDS011;21130;51.728;8.748;2022-08-21T01:47:56;21.23;;;16.98;;
34924;SDS011;21130;51.728;8.748;2022-08-21T01:50:22;19.80;;;17.70;;
34924;SDS011;21130;51.728;8.748;2022-08-21T01:52:48;20.10;;;17.00;;
34924;SDS011;21130;51.728;8.748;2022-08-21T01:55:14;21.13;;;18.10;;
34924;SDS011;21130;51.728;8.748;2022-08-21T01:57:42;20.17;;;18.05;;
34924;SDS011;21130;51.728;8.748;2022-08-21T02:00:09;23.17;;;18.95;;
34924;SDS011;21130;51.728;8.748;2022-08-21T02:02:37;19.77;;;17.52;;
34924;SDS011;21130;51.728;8.748;2022-08-21T02:05:03;23.98;;;19.63;;
34924;SDS011;21130;51.728;8.748;2022-08-21T02:07:36;20.50;;;18.40;;
34924;SDS011;21130;51.728;8.748;2022-08-21T02:10:07;20.42;;;18.20;;
34924;SDS011;21130;51.728;8.748;2022-08-21T02:12:34;19.83;;;17.73;;
34924;SDS011;21130;51.728;8.748;2022-08-21T02:14:59;19.27;;;17.38;;
34924;SDS011;21130;51.728;8.748;2022-08-21T02:17:25;28.52;;;22.63;;
34924;SDS011;21130;51.728;8.748;2022-08-21T02:19:51;22.05;;;19.77;;
34924;SDS011;21130;51.728;8.748;2022-08-21T02:22:16;25.48;;;22.23;;
34924;SDS011;21130;51.728;8.748;2022-08-21T02:24:41;23.65;;;20.70;;
34924;SDS011;21130;51.728;8.748;2022-08-21T02:27:07;22.83;;;19.38;;
34924;SDS011;21130;51.728;8.748;2022-08-21T02:29:33;27.10;;;20.98;;
34924;SDS011;21130;51.728;8.748;2022-08-21T02:31:58;23.90;;;20.60;;
34924;SDS011;21130;51.728;8.748;2022-08-21T02:34:24;24.48;;;20.05;;
34924;SDS011;21130;51.728;8.748;2022-08-21T02:36:49;32.00;;;23.92;;
34924;SDS011;21130;51.728;8.748;2022-08-21T02:39:15;23.20;;;19.35;;
34924;SDS011;21130;51.728;8.748;2022-08-21T02:41:40;25.27;;;21.65;;
34924;SDS011;21130;51.728;8.748;2022-08-21T02:44:05;24.92;;;20.33;;
34924;SDS011;21130;51.728;8.748;2022-08-21T02:46:30;24.40;;;20.83;;
34924;SDS011;21130;51.728;8.748;2022-08-21T02:48:56;24.60;;;20.88;;
34924;SDS011;21130;51.728;8.748;2022-08-21T02:51:21;24.67;;;20.27;;
34924;SDS011;21130;51.728;8.748;2022-08-21T02:53:48;25.75;;;20.88;;
34924;SDS011;21130;51.728;8.748;2022-08-21T02:56:15;22.67;;;19.45;;
34924;SDS011;21130;51.728;8.748;2022-08-21T02:58:46;21.95;;;18.80;;
34924;SDS011;21130;51.728;8.748;2022-08-21T03:01:14;23.20;;;19.30;;
34924;SDS011;21130;51.728;8.748;2022-08-21T03:03:41;25.40;;;20.17;;
34924;SDS011;21130;51.728;8.748;2022-08-21T03:06:08;21.73;;;19.02;;
34924;SDS011;21130;51.728;8.748;2022-08-21T03:08:36;22.10;;;19.10;;
34924;SDS011;21130;51.728;8.748;2022-08-21T03:11:02;20.13;;;17.25;;
34924;SDS011;21130;51.728;8.748;2022-08-21T03:13:28;22.33;;;18.30;;
34924;SDS011;21130;51.728;8.748;2022-08-21T03:15:54;22.25;;;19.42;;
34924;SDS011;21130;51.728;8.748;2022-08-21T03:18:20;22.77;;;20.00;;
34924;SDS011;21130;51.728;8.748;2022-08-21T03:20:46;22.02;;;18.00;;
34924;SDS011;21130;51.728;8.748;2022-08-21T03:23:13;22.17;;;19.88;;
34924;SDS011;21130;51.728;8.748;2022-08-21T03:25:41;21.67;;;19.38;;
34924;SDS011;21130;51.728;8.748;2022-08-21T03:28:09;24.77;;;20.45;;
34924;SDS011;21130;51.728;8.748;2022-08-21T03:30:40;22.90;;;19.15;;
34924;SDS011;21130;51.728;8.748;2022-08-21T03:33:06;20.40;;;18.10;;
34924;SDS011;21130;51.728;8.748;2022-08-21T03:35:32;21.23;;;18.95;;
34924;SDS011;21130;51.728;8.748;2022-08-21T03:37:57;27.42;;;20.83;;
34924;SDS011;21130;51.728;8.748;2022-08-21T03:40:24;21.50;;;19.17;;
34924;SDS011;21130;51.728;8.748;2022-08-21T03:42:50;20.23;;;18.00;;
34924;SDS011;21130;51.728;8.748;2022-08-21T03:45:16;25.42;;;20.10;;
34924;SDS011;21130;51.728;8.748;2022-08-21T03:47:56;26.30;;;20.30;;
34924;SDS011;21130;51.728;8.748;2022-08-21T03:50:25;27.23;;;21.38;;
34924;SDS011;21130;51.728;8.748;2022-08-21T03:52:52;25.58;;;20.10;;
34924;SDS011;21130;51.728;8.748;2022-08-21T03:55:18;20.80;;;18.63;;
34924;SDS011;21130;51.728;8.748;2022-08-21T03:57:44;24.13;;;20.33;;
34924;SDS011;21130;51.728;8.748;2022-08-21T04:00:10;23.33;;;20.75;;
34924;SDS011;21130;51.728;8.748;2022-08-21T04:02:37;23.25;;;19.63;;
34924;SDS011;21130;51.728;8.748;2022-08-21T04:05:03;22.38;;;19.50;;
34924;SDS011;21130;51.728;8.748;2022-08-21T04:07:29;24.50;;;19.90;;
34924;SDS011;21130;51.728;8.748;2022-08-21T04:09:56;23.27;;;19.88;;
34924;SDS011;21130;51.728;8.748;2022-08-21T04:12:21;30.05;;;23.02;;
34924;SDS011;21130;51.728;8.748;2022-08-21T04:14:46;26.75;;;21.58;;
34924;SDS011;21130;51.728;8.748;2022-08-21T04:17:12;29.25;;;22.25;;
34924;SDS011;21130;51.728;8.748;2022-08-21T04:19:38;24.20;;;21.50;;
34924;SDS011;21130;51.728;8.748;2022-08-21T04:22:03;27.02;;;21.75;;
34924;SDS011;21130;51.728;8.748;2022-08-21T04:24:29;25.63;;;20.35;;
34924;SDS011;21130;51.728;8.748;2022-08-21T04:26:54;24.90;;;21.13;;
34924;SDS011;21130;51.728;8.748;2022-08-21T04:29:20;23.48;;;19.67;;
34924;SDS011;21130;51.728;8.748;2022-08-21T04:31:45;26.88;;;20.77;;
34924;SDS011;21130;51.728;8.748;2022-08-21T04:34:10;24.42;;;20.17;;
34924;SDS011;21130;51.728;8.748;2022-08-21T04:36:36;29.98;;;22.10;;
34924;SDS011;21130;51.728;8.748;2022-08-21T04:39:01;25.95;;;21.85;;
34924;SDS011;21130;51.728;8.748;2022-08-21T04:41:27;30.45;;;22.05;;
34924;SDS011;21130;51.728;8.748;2022-08-21T04:43:53;28.13;;;20.77;;
34924;SDS011;21130;51.728;8.748;2022-08-21T04:46:20;25.23;;;20.42;;
34924;SDS011;21130;51.728;8.748;2022-08-21T04:48:45;27.45;;;23.17;;
34924;SDS011;21130;51.728;8.748;2022-08-21T04:53:50;23.13;;;19.65;;
34924;SDS011;21130;51.728;8.748;2022-08-21T04:58:48;23.60;;;19.70;;
34924;SDS011;21130;51.728;8.748;2022-08-21T05:01:17;32.20;;;22.20;;
34924;SDS011;21130;51.728;8.748;2022-08-21T05:03:46;28.73;;;22.45;;
34924;SDS011;21130;51.728;8.748;2022-08-21T05:06:14;26.85;;;20.90;;
34924;SDS011;21130;51.728;8.748;2022-08-21T05:08:40;26.92;;;21.13;;
34924;SDS011;21130;51.728;8.748;2022-08-21T05:11:09;27.58;;;21.30;;
34924;SDS011;21130;51.728;8.748;2022-08-21T05:13:35;22.17;;;18.30;;
34924;SDS011;21130;51.728;8.748;2022-08-21T05:16:00;20.27;;;18.27;;
34924;SDS011;21130;51.728;8.748;2022-08-21T05:18:26;19.05;;;17.05;;
34924;SDS011;21130;51.728;8.748;2022-08-21T05:20:51;22.73;;;17.30;;
34924;SDS011;21130;51.728;8.748;2022-08-21T05:23:17;19.35;;;17.35;;
34924;SDS011;21130;51.728;8.748;2022-08-21T05:25:42;22.13;;;17.77;;
34924;SDS011;21130;51.728;8.748;2022-08-21T05:28:09;19.23;;;17.15;;
34924;SDS011;21130;51.728;8.748;2022-08-21T05:30:35;23.23;;;18.48;;
34924;SDS011;21130;51.728;8.748;2022-08-21T05:33:02;20.58;;;17.42;;
34924;SDS011;21130;51.728;8.748;2022-08-21T05:35:30;19.52;;;17.10;;
34924;SDS011;21130;51.728;8.748;2022-08-21T05:37:57;18.60;;;16.55;;
34924;SDS011;21130;51.728;8.748;2022-08-21T05:40:23;21.38;;;17.50;;
34924;SDS011;21130;51.728;8.748;2022-08-21T05:42:50;18.38;;;15.68;;
34924;SDS011;21130;51.728;8.748;2022-08-21T05:45:15;17.08;;;14.95;;
34924;SDS011;21130;51.728;8.748;2022-08-21T05:47:41;21.25;;;17.67;;
34924;SDS011;21130;51.728;8.748;2022-08-21T05:50:07;17.70;;;15.88;;
34924;SDS011;21130;51.728;8.748;2022-08-21T05:52:33;17.77;;;15.80;;
34924;SDS011;21130;51.728;8.748;2022-08-21T05:54:58;19.85;;;16.75;;
34924;SDS011;21130;51.728;8.748;2022-08-21T05:57:23;21.17;;;16.25;;
34924;SDS011;21130;51.728;8.748;2022-08-21T05:59:50;17.58;;;15.80;;
34924;SDS011;21130;51.728;8.748;2022-08-21T06:02:19;17.50;;;15.70;;
34924;SDS011;21130;51.728;8.748;2022-08-21T06:04:45;19.27;;;15.70;;
34924;SDS011;21130;51.728;8.748;2022-08-21T06:07:11;18.80;;;15.43;;
34924;SDS011;21130;51.728;8.748;2022-08-21T06:09:36;17.58;;;14.40;;
34924;SDS011;21130;51.728;8.748;2022-08-21T06:15:10;17.88;;;14.13;;
34924;SDS011;21130;51.728;8.748;2022-08-21T06:17:36;15.80;;;13.02;;
34924;SDS011;21130;51.728;8.748;2022-08-21T06:20:01;13.82;;;12.43;;
34924;SDS011;21130;51.728;8.748;2022-08-21T06:22:27;13.27;;;11.07;;
34924;SDS011;21130;51.728;8.748;2022-08-21T06:24:54;11.82;;;9.55;;
34924;SDS011;21130;51.728;8.748;2022-08-21T06:27:19;10.41;;;8.06;;
34924;SDS011;21130;51.728;8.748;2022-08-21T06:29:44;10.30;;;7.95;;
34924;SDS011;21130;51.728;8.748;2022-08-21T06:32:11;11.65;;;8.25;;
34924;SDS011;21130;51.728;8.748;2022-08-21T06:34:37;10.57;;;7.03;;
34924;SDS011;21130;51.728;8.748;2022-08-21T06:37:04;9.32;;;5.93;;
34924;SDS011;21130;51.728;8.748;2022-08-21T06:39:30;14.27;;;6.65;;
34924;SDS011;21130;51.728;8.748;2022-08-21T06:41:55;9.38;;;5.95;;
34924;SDS011;21130;51.728;8.748;2022-08-21T06:44:21;11.55;;;5.50;;
34924;SDS011;21130;51.728;8.748;2022-08-21T06:46:46;9.95;;;5.47;;
34924;SDS011;21130;51.728;8.748;2022-08-21T06:49:14;9.35;;;4.65;;
34924;SDS011;21130;51.728;8.748;2022-08-21T06:51:39;12.02;;;4.65;;
34924;SDS011;21130;51.728;8.748;2022-08-21T06:54:05;10.10;;;5.65;;
34924;SDS011;21130;51.728;8.748;2022-08-21T06:56:31;9.60;;;5.15;;
34924;SDS011;21130;51.728;8.748;2022-08-21T06:59:01;12.82;;;4.85;;
34924;SDS011;21130;51.728;8.748;2022-08-21T07:01:26;10.93;;;4.70;;
34924;SDS011;21130;51.728;8.748;2022-08-21T07:03:52;11.30;;;5.25;;
34924;SDS011;21130;51.728;8.748;2022-08-21T07:06:17;12.23;;;5.43;;
34924;SDS011;21130;51.728;8.748;2022-08-21T07:08:43;7.78;;;4.40;;
34924;SDS011;21130;51.728;8.748;2022-08-21T07:11:11;9.85;;;4.55;;
34924;SDS011;21130;51.728;8.748;2022-08-21T07:13:39;9.13;;;4.38;;
34924;SDS011;21130;51.728;8.748;2022-08-21T07:16:05;15.15;;;5.78;;
34924;SDS011;21130;51.728;8.748;2022-08-21T07:18:31;12.40;;;4.53;;
34924;SDS011;21130;51.728;8.748;2022-08-21T07:20:56;9.35;;;5.20;;
34924;SDS011;21130;51.728;8.748;2022-08-21T07:23:23;9.68;;;4.30;;
34924;SDS011;21130;51.728;8.748;2022-08-21T07:25:52;10.73;;;4.90;;
34924;SDS011;21130;51.728;8.748;2022-08-21T07:28:18;10.80;;;4.40;;
34924;SDS011;21130;51.728;8.748;2022-08-21T07:30:44;11.07;;;4.60;;
34924;SDS011;21130;51.728;8.748;2022-08-21T07:33:10;12.43;;;4.55;;
34924;SDS011;21130;51.728;8.748;2022-08-21T07:35:36;9.77;;;4.50;;
34924;SDS011;21130;51.728;8.748;2022-08-21T07:38:02;8.02;;;3.53;;
34924;SDS011;21130;51.728;8.748;2022-08-21T07:40:27;13.07;;;4.10;;
34924;SDS011;21130;51.728;8.748;2022-08-21T07:42:52;6.43;;;3.38;;
34924;SDS011;21130;51.728;8.748;2022-08-21T07:45:19;9.48;;;3.65;;
34924;SDS011;21130;51.728;8.748;2022-08-21T07:47:46;8.48;;;3.72;;
34924;SDS011;21130;51.728;8.748;2022-08-21T07:50:12;9.30;;;4.15;;
34924;SDS011;21130;51.728;8.748;2022-08-21T07:52:39;8.93;;;3.70;;
34924;SDS011;21130;51.728;8.748;2022-08-21T07:55:05;8.40;;;3.70;;
34924;SDS011;21130;51.728;8.748;2022-08-21T07:57:31;8.23;;;3.17;;
34924;SDS011;21130;51.728;8.748;2022-08-21T07:59:56;6.60;;;3.30;;
34924;SDS011;21130;51.728;8.748;2022-08-21T08:02:25;5.65;;;2.90;;
34924;SDS011;21130;51.728;8.748;2022-08-21T08:04:52;4.93;;;2.90;;
34924;SDS011;21130;51.728;8.748;2022-08-21T08:07:18;6.28;;;3.20;;
34924;SDS011;21130;51.728;8.748;2022-08-21T08:09:43;6.88;;;3.30;;
34924;SDS011;21130;51.728;8.748;2022-08-21T08:12:09;7.60;;;3.17;;
34924;SDS011;21130;51.728;8.748;2022-08-21T08:14:35;10.02;;;3.40;;
34924;SDS011;21130;51.728;8.748;2022-08-21T08:17:01;7.35;;;3.03;;
34924;SDS011;21130;51.728;8.748;2022-08-21T08:19:27;8.00;;;3.22;;
34924;SDS011;21130;51.728;8.748;2022-08-21T08:21:53;7.00;;;3.30;;
34924;SDS011;21130;51.728;8.748;2022-08-21T08:24:18;4.95;;;2.47;;
34924;SDS011;21130;51.728;8.748;2022-08-21T08:26:44;4.95;;;2.35;;
34924;SDS011;21130;51.728;8.748;2022-08-21T08:29:09;6.53;;;2.75;;
34924;SDS011;21130;51.728;8.748;2022-08-21T08:31:36;8.57;;;2.70;;
34924;SDS011;21130;51.728;8.748;2022-08-21T08:34:01;6.00;;;2.40;;
34924;SDS011;21130;51.728;8.748;2022-08-21T08:36:34;6.22;;;2.90;;
34924;SDS011;21130;51.728;8.748;2022-08-21T08:39:01;7.82;;;2.80;;
34924;SDS011;21130;51.728;8.748;2022-08-21T08:41:28;7.07;;;2.40;;
34924;SDS011;21130;51.728;8.748;2022-08-21T08:43:56;6.50;;;2.25;;
34924;SDS011;21130;51.728;8.748;2022-08-21T08:46:37;6.35;;;2.35;;
34924;SDS011;21130;51.728;8.748;2022-08-21T08:49:08;5.43;;;2.13;;
34924;SDS011;21130;51.728;8.748;2022-08-21T08:51:47;6.90;;;2.60;;
34924;SDS011;21130;51.728;8.748;2022-08-21T08:54:39;5.95;;;2.90;;
34924;SDS011;21130;51.728;8.748;2022-08-21T08:57:10;6.95;;;2.83;;
34924;SDS011;21130;51.728;8.748;2022-08-21T08:59:42;6.97;;;2.55;;
34924;SDS011;21130;51.728;8.748;2022-08-21T09:02:13;7.25;;;2.38;;
34924;SDS011;21130;51.728;8.748;2022-08-21T09:04:39;8.10;;;2.42;;
34924;SDS011;21130;51.728;8.748;2022-08-21T09:07:50;5.85;;;2.50;;
34924;SDS011;21130;51.728;8.748;2022-08-21T09:10:18;6.97;;;2.58;;
34924;SDS011;21130;51.728;8.748;2022-08-21T09:15:46;5.35;;;2.30;;
34924;SDS011;21130;51.728;8.748;2022-08-21T09:18:31;6.88;;;2.50;;
34924;SDS011;21130;51.728;8.748;2022-08-21T09:21:02;5.30;;;2.08;;
34924;SDS011;21130;51.728;8.748;2022-08-21T09:23:52;5.72;;;2.05;;
34924;SDS011;21130;51.728;8.748;2022-08-21T09:26:23;6.90;;;2.20;;
34924;SDS011;21130;51.728;8.748;2022-08-21T09:28:53;5.32;;;2.40;;
34924;SDS011;21130;51.728;8.748;2022-08-21T09:34:27;9.65;;;2.75;;
34924;SDS011;21130;51.728;8.748;2022-08-21T09:36:55;4.47;;;2.13;;
34924;SDS011;21130;51.728;8.748;2022-08-21T09:39:28;4.03;;;2.25;;
34924;SDS011;21130;51.728;8.748;2022-08-21T09:42:00;6.22;;;2.47;;
34924;SDS011;21130;51.728;8.748;2022-08-21T09:44:30;4.40;;;2.30;;
34924;SDS011;21130;51.728;8.748;2022-08-21T09:46:58;6.07;;;2.45;;
34924;SDS011;21130;51.728;8.748;2022-08-21T09:49:28;5.55;;;2.40;;
34924;SDS011;21130;51.728;8.748;2022-08-21T09:51:54;7.15;;;2.75;;
34924;SDS011;21130;51.728;8.748;2022-08-21T09:54:20;5.65;;;2.70;;
34924;SDS011;21130;51.728;8.748;2022-08-21T09:57:01;6.45;;;2.40;;
34924;SDS011;21130;51.728;8.748;2022-08-21T10:00:29;5.87;;;2.17;;
34924;SDS011;21130;51.728;8.748;2022-08-21T10:03:13;5.95;;;2.40;;
34924;SDS011;21130;51.728;8.748;2022-08-21T10:05:54;5.78;;;2.13;;
34924;SDS011;21130;51.728;8.748;2022-08-21T10:08:27;6.03;;;2.22;;
34924;SDS011;21130;51.728;8.748;2022-08-21T10:10:57;4.78;;;2.22;;
34924;SDS011;21130;51.728;8.748;2022-08-21T10:19:16;5.50;;;2.03;;
34924;SDS011;21130;51.728;8.748;2022-08-21T10:24:32;4.97;;;2.28;;
34924;SDS011;21130;51.728;8.748;2022-08-21T10:27:12;3.88;;;2.05;;
34924;SDS011;21130;51.728;8.748;2022-08-21T10:35:51;6.28;;;2.20;;
34924;SDS011;21130;51.728;8.748;2022-08-21T10:38:34;5.20;;;2.15;;
34924;SDS011;21130;51.728;8.748;2022-08-21T10:41:21;6.95;;;2.13;;
34924;SDS011;21130;51.728;8.748;2022-08-21T10:49:39;5.60;;;2.28;;
34924;SDS011;21130;51.728;8.748;2022-08-21T10:54:46;3.97;;;1.70;;
34924;SDS011;21130;51.728;8.748;2022-08-21T10:57:36;6.65;;;2.00;;
34924;SDS011;21130;51.728;8.748;2022-08-21T11:00:12;5.97;;;2.10;;
34924;SDS011;21130;51.728;8.748;2022-08-21T11:05:11;5.15;;;2.00;;
34924;SDS011;21130;51.728;8.748;2022-08-21T11:07:48;4.45;;;2.00;;
34924;SDS011;21130;51.728;8.748;2022-08-21T11:10:31;5.43;;;2.05;;
34924;SDS011;21130;51.728;8.748;2022-08-21T11:13:03;5.55;;;1.77;;
34924;SDS011;21130;51.728;8.748;2022-08-21T11:18:10;6.65;;;1.83;;
34924;SDS011;21130;51.728;8.748;2022-08-21T11:20:59;4.38;;;1.65;;
34924;SDS011;21130;51.728;8.748;2022-08-21T11:29:04;5.25;;;1.65;;
34924;SDS011;21130;51.728;8.748;2022-08-21T11:31:40;5.25;;;1.55;;
34924;SDS011;21130;51.728;8.748;2022-08-21T11:40:06;4.25;;;1.77;;
34924;SDS011;21130;51.728;8.748;2022-08-21T11:42:44;3.90;;;1.52;;
34924;SDS011;21130;51.728;8.748;2022-08-21T11:45:27;4.05;;;1.75;;
34924;SDS011;21130;51.728;8.748;2022-08-21T11:50:50;4.85;;;1.80;;
34924;SDS011;21130;51.728;8.748;2022-08-21T11:53:23;3.90;;;1.95;;
34924;SDS011;21130;51.728;8.748;2022-08-21T11:58:30;5.53;;;1.80;;
34924;SDS011;21130;51.728;8.748;2022-08-21T12:01:03;6.55;;;1.85;;
34924;SDS011;21130;51.728;8.748;2022-08-21T12:03:33;2.97;;;1.88;;
34924;SDS011;21130;51.728;8.748;2022-08-21T12:06:05;3.63;;;1.85;;
34924;SDS011;21130;51.728;8.748;2022-08-21T12:08:35;5.22;;;1.90;;
34924;SDS011;21130;51.728;8.748;2022-08-21T12:11:05;4.40;;;1.70;;
34924;SDS011;21130;51.728;8.748;2022-08-21T12:13:31;5.22;;;1.83;;
34924;SDS011;21130;51.728;8.748;2022-08-21T12:16:10;5.78;;;1.90;;
34924;SDS011;21130;51.728;8.748;2022-08-21T12:18:37;7.43;;;2.25;;
34924;SDS011;21130;51.728;8.748;2022-08-21T12:26:49;7.00;;;2.30;;
34924;SDS011;21130;51.728;8.748;2022-08-21T12:29:31;5.03;;;1.92;;
34924;SDS011;21130;51.728;8.748;2022-08-21T12:32:00;6.00;;;2.33;;
34924;SDS011;21130;51.728;8.748;2022-08-21T12:34:49;4.50;;;1.73;;
34924;SDS011;21130;51.728;8.748;2022-08-21T12:37:30;9.48;;;2.03;;
34924;SDS011;21130;51.728;8.748;2022-08-21T12:40:09;4.63;;;2.42;;
34924;SDS011;21130;51.728;8.748;2022-08-21T12:42:47;4.43;;;1.85;;
34924;SDS011;21130;51.728;8.748;2022-08-21T12:45:20;5.57;;;2.35;;
34924;SDS011;21130;51.728;8.748;2022-08-21T12:48:02;3.85;;;1.90;;
34924;SDS011;21130;51.728;8.748;2022-08-21T12:53:50;4.88;;;1.65;;
34924;SDS011;21130;51.728;8.748;2022-08-21T12:56:01;6.28;;;2.40;;
34924;SDS011;21130;51.728;8.748;2022-08-21T12:58:29;3.95;;;2.10;;
34924;SDS011;21130;51.728;8.748;2022-08-21T13:03:57;4.03;;;1.77;;
34924;SDS011;21130;51.728;8.748;2022-08-21T13:06:26;4.05;;;1.80;;
34924;SDS011;21130;51.728;8.748;2022-08-21T13:08:57;4.63;;;1.95;;
34924;SDS011;21130;51.728;8.748;2022-08-21T13:11:28;3.70;;;1.92;;
34924;SDS011;21130;51.728;8.748;2022-08-21T13:13:54;4.47;;;1.80;;
34924;SDS011;21130;51.728;8.748;2022-08-21T13:16:26;4.03;;;1.77;;
34924;SDS011;21130;51.728;8.748;2022-08-21T13:21:29;2.72;;;1.60;;
34924;SDS011;21130;51.728;8.748;2022-08-21T13:24:13;4.22;;;1.90;;
34924;SDS011;21130;51.728;8.748;2022-08-21T13:26:39;4.57;;;1.83;;
34924;SDS011;21130;51.728;8.748;2022-08-21T13:29:06;3.67;;;1.35;;
34924;SDS011;21130;51.728;8.748;2022-08-21T13:31:32;4.30;;;1.60;;
34924;SDS011;21130;51.728;8.748;2022-08-21T13:33:58;1.95;;;1.45;;
34924;SDS011;21130;51.728;8.748;2022-08-21T13:36:25;4.93;;;1.65;;
34924;SDS011;21130;51.728;8.748;2022-08-21T13:38:54;2.92;;;1.58;;
34924;SDS011;21130;51.728;8.748;2022-08-21T13:41:21;2.78;;;1.30;;
34924;SDS011;21130;51.728;8.748;2022-08-21T13:43:56;3.65;;;1.90;;
34924;SDS011;21130;51.728;8.748;2022-08-21T13:46:24;2.67;;;1.60;;
34924;SDS011;21130;51.728;8.748;2022-08-21T13:48:53;2.17;;;1.40;;
34924;SDS011;21130;51.728;8.748;2022-08-21T13:51:20;3.13;;;1.30;;
34924;SDS011;21130;51.728;8.748;2022-08-21T13:53:47;4.57;;;1.25;;
34924;SDS011;21130;51.728;8.748;2022-08-21T13:58:50;3.38;;;1.40;;
34924;SDS011;21130;51.728;8.748;2022-08-21T14:01:22;3.38;;;1.65;;
34924;SDS011;21130;51.728;8.748;2022-08-21T14:03:52;2.42;;;1.30;;
34924;SDS011;21130;51.728;8.748;2022-08-21T14:06:23;3.33;;;1.65;;
34924;SDS011;21130;51.728;8.748;2022-08-21T14:08:52;3.55;;;1.65;;
34924;SDS011;21130;51.728;8.748;2022-08-21T14:11:20;5.00;;;1.50;;
34924;SDS011;21130;51.728;8.748;2022-08-21T14:13:55;4.03;;;1.90;;
34924;SDS011;21130;51.728;8.748;2022-08-21T14:16:25;2.75;;;1.58;;
34924;SDS011;21130;51.728;8.748;2022-08-21T14:21:31;4.43;;;1.45;;
34924;SDS011;21130;51.728;8.748;2022-08-21T14:24:02;3.10;;;1.20;;
34924;SDS011;21130;51.728;8.748;2022-08-21T14:26:44;4.68;;;1.30;;
34924;SDS011;21130;51.728;8.748;2022-08-21T14:29:16;2.65;;;1.40;;
34924;SDS011;21130;51.728;8.748;2022-08-21T14:31:48;2.20;;;1.40;;
34924;SDS011;21130;51.728;8.748;2022-08-21T14:34:15;2.83;;;1.30;;
34924;SDS011;21130;51.728;8.748;2022-08-21T14:36:42;3.58;;;1.40;;
34924;SDS011;21130;51.728;8.748;2022-08-21T14:39:10;2.90;;;1.30;;
34924;SDS011;21130;51.728;8.748;2022-08-21T14:41:36;2.47;;;1.23;;
34924;SDS011;21130;51.728;8.748;2022-08-21T14:44:02;3.38;;;1.20;;
34924;SDS011;21130;51.728;8.748;2022-08-21T14:46:30;2.45;;;1.02;;
34924;SDS011;21130;51.728;8.748;2022-08-21T14:48:57;2.85;;;1.00;;
34924;SDS011;21130;51.728;8.748;2022-08-21T14:51:23;2.75;;;1.20;;
34924;SDS011;21130;51.728;8.748;2022-08-21T14:53:48;2.70;;;1.10;;
34924;SDS011;21130;51.728;8.748;2022-08-21T14:56:14;2.47;;;1.20;;
34924;SDS011;21130;51.728;8.748;2022-08-21T14:58:44;3.08;;;1.48;;
34924;SDS011;21130;51.728;8.748;2022-08-21T15:01:13;2.55;;;1.05;;
34924;SDS011;21130;51.728;8.748;2022-08-21T15:03:40;2.63;;;1.27;;
34924;SDS011;21130;51.728;8.748;2022-08-21T15:06:06;3.90;;;1.67;;
34924;SDS011;21130;51.728;8.748;2022-08-21T15:08:32;3.45;;;1.33;;
34924;SDS011;21130;51.728;8.748;2022-08-21T15:10:59;2.65;;;1.10;;
34924;SDS011;21130;51.728;8.748;2022-08-21T15:14:14;3.55;;;1.40;;
34924;SDS011;21130;51.728;8.748;2022-08-21T15:16:44;3.58;;;1.13;;
34924;SDS011;21130;51.728;8.748;2022-08-21T15:19:10;2.10;;;1.20;;
34924;SDS011;21130;51.728;8.748;2022-08-21T15:21:35;3.75;;;1.35;;
34924;SDS011;21130;51.728;8.748;2022-08-21T15:24:01;4.28;;;1.45;;
34924;SDS011;21130;51.728;8.748;2022-08-21T15:26:26;2.55;;;1.17;;
34924;SDS011;21130;51.728;8.748;2022-08-21T15:28:52;3.17;;;1.50;;
34924;SDS011;21130;51.728;8.748;2022-08-21T15:31:17;2.95;;;1.30;;
34924;SDS011;21130;51.728;8.748;2022-08-21T15:33:42;3.22;;;1.25;;
34924;SDS011;21130;51.728;8.748;2022-08-21T15:36:08;3.70;;;1.40;;
34924;SDS011;21130;51.728;8.748;2022-08-21T15:38:33;2.65;;;1.25;;
34924;SDS011;21130;51.728;8.748;2022-08-21T15:40:59;3.80;;;1.40;;
34924;SDS011;21130;51.728;8.748;2022-08-21T15:43:28;2.75;;;1.27;;
34924;SDS011;21130;51.728;8.748;2022-08-21T15:45:59;2.50;;;1.10;;
34924;SDS011;21130;51.728;8.748;2022-08-21T15:48:27;2.83;;;1.27;;
34924;SDS011;21130;51.728;8.748;2022-08-21T15:50:53;2.33;;;1.20;;
34924;SDS011;21130;51.728;8.748;2022-08-21T15:53:18;2.72;;;1.00;;
34924;SDS011;21130;51.728;8.748;2022-08-21T15:55:44;3.40;;;1.40;;
34924;SDS011;21130;51.728;8.748;2022-08-21T15:58:13;3.90;;;1.45;;
34924;SDS011;21130;51.728;8.748;2022-08-21T16:00:40;3.58;;;1.33;;
34924;SDS011;21130;51.728;8.748;2022-08-21T16:03:08;3.03;;;0.98;;
34924;SDS011;21130;51.728;8.748;2022-08-21T16:05:37;2.22;;;1.27;;
34924;SDS011;21130;51.728;8.748;2022-08-21T16:08:02;2.20;;;1.10;;